createdAt,value
2017-11-27T00:04:51.774Z,7.30
2017-11-27T00:12:12.589Z,7.40
2017-11-27T00:14:40.289Z,7.47
2017-11-27T00:17:08.132Z,7.70
2017-11-27T00:19:35.461Z,7.33
2017-11-27T00:22:03.143Z,7.50
2017-11-27T00:24:30.482Z,7.97
2017-11-27T00:26:58.146Z,8.30
2017-11-27T00:29:25.921Z,8.13
2017-11-27T00:31:53.263Z,6.73
2017-11-27T00:34:21.026Z,7.23
2017-11-27T00:36:48.345Z,8.27
2017-11-27T00:39:15.689Z,8.40
2017-11-27T00:41:43.314Z,8.50
2017-11-27T00:44:11.050Z,8.10
2017-11-27T00:46:38.838Z,7.87
2017-11-27T00:49:06.142Z,8.50
2017-11-27T00:51:33.522Z,8.50
2017-11-27T00:54:01.197Z,7.55
2017-11-27T00:56:28.870Z,8.20
2017-11-27T00:58:56.561Z,6.43
2017-11-27T01:01:24.202Z,8.13
2017-11-27T01:03:51.526Z,7.90
2017-11-27T01:06:18.908Z,8.47
2017-11-27T01:08:46.239Z,8.20
2017-11-27T01:11:14.022Z,9.07
2017-11-27T01:13:41.342Z,8.27
2017-11-27T01:16:08.650Z,8.23
2017-11-27T01:18:36.286Z,8.30
2017-11-27T01:21:03.611Z,9.60
2017-11-27T01:23:31.021Z,8.40
2017-11-27T01:25:58.657Z,9.10
2017-11-27T01:28:25.989Z,8.90
2017-11-27T01:30:53.670Z,9.10
2017-11-27T01:33:21.360Z,8.80
2017-11-27T01:35:48.795Z,9.13
2017-11-27T01:38:16.097Z,8.83
2017-11-27T01:40:43.810Z,9.30
2017-11-27T01:43:11.125Z,9.10
2017-11-27T01:45:38.454Z,8.53
2017-11-27T01:48:05.979Z,8.47
2017-11-27T01:50:33.298Z,8.53
2017-11-27T01:53:00.795Z,8.63
2017-11-27T01:55:28.199Z,8.90
2017-11-27T01:57:55.500Z,8.30
2017-11-27T02:00:22.822Z,7.93
2017-11-27T02:02:50.493Z,8.20
2017-11-27T02:05:18.277Z,7.70
2017-11-27T02:07:45.603Z,7.40
2017-11-27T02:10:13.113Z,7.37
2017-11-27T02:12:40.734Z,7.43
2017-11-27T02:15:08.437Z,8.60
2017-11-27T02:17:36.237Z,8.27
2017-11-27T02:20:03.826Z,8.50
2017-11-27T02:22:31.522Z,8.73
2017-11-27T02:24:59.177Z,8.93
2017-11-27T02:27:26.830Z,8.60
2017-11-27T02:29:54.496Z,7.97
2017-11-27T02:32:21.810Z,8.77
2017-11-27T02:34:49.234Z,9.30
2017-11-27T02:37:16.865Z,8.50
2017-11-27T02:39:44.188Z,9.13
2017-11-27T02:42:11.890Z,8.40
2017-11-27T02:44:39.522Z,7.97
2017-11-27T02:47:07.159Z,8.17
2017-11-27T02:49:34.463Z,8.57
2017-11-27T02:52:02.128Z,8.57
2017-11-27T02:54:30.701Z,8.50
2017-11-27T02:56:58.331Z,8.87
2017-11-27T02:59:25.664Z,8.63
2017-11-27T03:01:52.975Z,7.53
2017-11-27T03:04:20.629Z,8.93
2017-11-27T03:06:48.305Z,8.90
2017-11-27T03:09:15.945Z,7.37
2017-11-27T03:11:43.707Z,8.40
2017-11-27T03:14:11.035Z,8.43
2017-11-27T03:16:38.803Z,8.67
2017-11-27T03:19:06.546Z,7.87
2017-11-27T03:21:33.851Z,8.70
2017-11-27T03:24:01.166Z,7.30
2017-11-27T03:26:28.842Z,8.90
2017-11-27T03:28:56.531Z,8.20
2017-11-27T03:31:24.385Z,8.23
2017-11-27T03:33:51.893Z,7.73
2017-11-27T03:36:19.262Z,7.73
2017-11-27T03:38:46.554Z,9.20
2017-11-27T03:41:13.901Z,8.10
2017-11-27T03:43:41.578Z,7.83
2017-11-27T03:46:09.271Z,7.67
2017-11-27T03:48:36.873Z,8.77
2017-11-27T03:51:04.557Z,7.73
2017-11-27T03:53:31.862Z,7.60
2017-11-27T03:55:59.178Z,7.77
2017-11-27T03:58:26.830Z,8.17
2017-11-27T04:00:54.150Z,7.70
2017-11-27T04:03:21.958Z,8.70
2017-11-27T04:05:49.759Z,7.87
2017-11-27T04:08:17.054Z,8.43
2017-11-27T04:10:44.357Z,9.30
2017-11-27T04:13:11.682Z,8.10
2017-11-27T04:15:39.307Z,7.53
2017-11-27T04:18:07.010Z,8.10
2017-11-27T04:20:34.634Z,7.83
2017-11-27T04:23:02.334Z,8.07
2017-11-27T04:25:29.962Z,7.53
2017-11-27T04:27:58.881Z,7.80
2017-11-27T04:30:26.518Z,8.93
2017-11-27T04:32:54.262Z,8.07
2017-11-27T04:35:21.934Z,8.30
2017-11-27T04:37:49.714Z,8.23
2017-11-27T04:40:17.026Z,8.10
2017-11-27T04:42:44.375Z,7.93
2017-11-27T04:45:11.696Z,8.70
2017-11-27T04:47:39.326Z,8.43
2017-11-27T04:50:07.004Z,9.10
2017-11-27T04:52:34.401Z,8.47
2017-11-27T04:55:02.187Z,8.40
2017-11-27T04:57:29.756Z,8.63
2017-11-27T04:59:57.241Z,8.45
2017-11-27T05:02:24.567Z,9.60
2017-11-27T05:04:51.971Z,9.60
2017-11-27T05:07:19.307Z,9.60
2017-11-27T05:09:46.643Z,8.20
2017-11-27T05:12:13.954Z,8.90
2017-11-27T05:14:41.282Z,8.63
2017-11-27T05:17:08.921Z,8.10
2017-11-27T05:19:36.246Z,8.67
2017-11-27T05:22:03.930Z,8.67
2017-11-27T05:24:31.646Z,8.10
2017-11-27T05:26:59.257Z,9.20
2017-11-27T05:29:27.183Z,8.43
2017-11-27T05:31:55.672Z,8.80
2017-11-27T05:34:22.977Z,7.43
2017-11-27T05:36:50.635Z,7.30
2017-11-27T05:39:18.293Z,8.30
2017-11-27T05:41:46.374Z,8.20
2017-11-27T05:44:14.022Z,7.70
2017-11-27T05:46:41.369Z,8.80
2017-11-27T05:49:08.677Z,8.10
2017-11-27T05:51:36.007Z,8.40
2017-11-27T05:54:03.763Z,7.97
2017-11-27T05:56:31.129Z,8.03
2017-11-27T05:58:58.749Z,7.60
2017-11-27T06:01:26.074Z,8.17
2017-11-27T06:03:53.774Z,8.03
2017-11-27T06:06:21.073Z,7.87
2017-11-27T06:08:48.418Z,7.63
2017-11-27T06:11:16.046Z,8.67
2017-11-27T06:13:43.364Z,8.47
2017-11-27T06:16:11.205Z,8.47
2017-11-27T06:18:38.822Z,8.20
2017-11-27T06:21:06.130Z,9.03
2017-11-27T06:23:33.478Z,8.00
2017-11-27T06:26:00.815Z,8.53
2017-11-27T06:28:28.171Z,6.77
2017-11-27T06:30:55.789Z,9.17
2017-11-27T06:33:23.486Z,9.13
2017-11-27T06:35:51.105Z,8.43
2017-11-27T06:38:18.770Z,8.60
2017-11-27T06:40:46.482Z,10.10
2017-11-27T06:43:14.091Z,9.10
2017-11-27T06:45:41.790Z,10.63
2017-11-27T06:48:10.478Z,10.50
2017-11-27T06:50:38.126Z,11.83
2017-11-27T06:53:05.487Z,12.50
2017-11-27T06:55:33.146Z,10.63
2017-11-27T06:58:00.851Z,11.33
2017-11-27T07:00:28.581Z,12.73
2017-11-27T07:02:56.234Z,11.10
2017-11-27T07:05:23.911Z,10.77
2017-11-27T07:07:51.594Z,11.60
2017-11-27T07:10:19.225Z,11.87
2017-11-27T07:12:46.854Z,12.57
2017-11-27T07:15:14.533Z,11.00
2017-11-27T07:17:41.844Z,12.20
2017-11-27T07:20:09.657Z,11.60
2017-11-27T07:22:36.965Z,12.73
2017-11-27T07:25:04.367Z,14.27
2017-11-27T07:27:32.021Z,13.20
2017-11-27T07:29:59.320Z,11.90
2017-11-27T07:32:27.050Z,11.93
2017-11-27T07:34:54.693Z,11.80
2017-11-27T07:37:27.871Z,10.60
2017-11-27T07:39:55.638Z,10.77
2017-11-27T07:42:23.027Z,10.90
2017-11-27T07:44:50.658Z,10.30
2017-11-27T07:47:18.345Z,11.17
2017-11-27T07:49:46.058Z,10.27
2017-11-27T07:52:13.394Z,10.93
2017-11-27T07:54:40.710Z,9.37
2017-11-27T07:57:08.021Z,11.40
2017-11-27T07:59:35.386Z,11.33
2017-11-27T08:02:02.711Z,12.00
2017-11-27T08:04:30.053Z,10.40
2017-11-27T08:06:57.714Z,10.67
2017-11-27T08:09:25.048Z,9.70
2017-11-27T08:11:52.683Z,9.63
2017-11-27T08:14:20.066Z,9.50
2017-11-27T08:16:47.401Z,9.37
2017-11-27T08:19:14.729Z,10.30
2017-11-27T08:21:42.406Z,9.80
2017-11-27T08:24:10.138Z,10.37
2017-11-27T08:26:37.438Z,8.80
2017-11-27T08:29:04.770Z,9.13
2017-11-27T08:31:32.458Z,8.20
2017-11-27T08:33:59.761Z,9.03
2017-11-27T08:36:27.122Z,10.10
2017-11-27T08:38:54.818Z,9.70
2017-11-27T08:41:22.486Z,8.27
2017-11-27T08:43:49.786Z,10.00
2017-11-27T08:46:17.113Z,9.13
2017-11-27T08:48:44.738Z,9.17
2017-11-27T08:51:12.426Z,9.37
2017-11-27T08:53:40.083Z,8.33
2017-11-27T08:56:07.399Z,7.77
2017-11-27T08:58:35.082Z,9.27
2017-11-27T09:01:02.566Z,9.30
2017-11-27T09:03:30.217Z,7.67
2017-11-27T09:05:57.518Z,8.47
2017-11-27T09:08:24.826Z,8.40
2017-11-27T09:10:52.458Z,8.30
2017-11-27T09:13:19.778Z,8.30
2017-11-27T09:15:47.089Z,8.13
2017-11-27T09:18:14.411Z,7.70
2017-11-27T09:20:42.134Z,7.30
2017-11-27T09:23:09.765Z,7.97
2017-11-27T09:25:37.074Z,8.70
2017-11-27T09:28:04.389Z,7.97
2017-11-27T09:30:32.011Z,8.90
2017-11-27T09:32:59.694Z,8.20
2017-11-27T09:35:26.996Z,8.10
2017-11-27T09:37:54.411Z,9.00
2017-11-27T09:40:21.902Z,8.37
2017-11-27T09:42:49.231Z,8.80
2017-11-27T09:45:16.888Z,7.57
2017-11-27T09:47:44.521Z,6.80
2017-11-27T09:50:12.189Z,9.00
2017-11-27T09:52:39.496Z,7.70
2017-11-27T09:55:06.841Z,7.50
2017-11-27T09:57:34.444Z,8.30
2017-11-27T10:00:02.129Z,8.17
2017-11-27T10:02:29.891Z,8.13
2017-11-27T10:04:57.228Z,7.70
2017-11-27T10:07:24.897Z,8.53
2017-11-27T10:09:52.570Z,8.40
2017-11-27T10:12:19.873Z,6.97
2017-11-27T10:14:47.207Z,7.43
2017-11-27T10:17:14.824Z,8.43
2017-11-27T10:19:42.519Z,7.20
2017-11-27T10:22:10.154Z,7.70
2017-11-27T10:24:37.462Z,8.00
2017-11-27T10:27:04.782Z,7.00
2017-11-27T10:29:32.473Z,8.00
2017-11-27T10:31:59.799Z,8.53
2017-11-27T10:34:27.428Z,7.50
2017-11-27T10:36:55.105Z,7.93
2017-11-27T10:39:22.418Z,8.43
2017-11-27T10:41:50.137Z,7.67
2017-11-27T10:44:17.795Z,7.10
2017-11-27T10:46:45.110Z,7.60
2017-11-27T10:49:12.594Z,8.00
2017-11-27T10:51:39.931Z,7.20
2017-11-27T10:54:07.791Z,7.10
2017-11-27T10:56:35.169Z,7.80
2017-11-27T10:59:02.486Z,7.43
2017-11-27T11:01:30.170Z,7.30
2017-11-27T11:03:57.525Z,6.60
2017-11-27T11:06:25.190Z,6.47
2017-11-27T11:08:52.521Z,6.00
2017-11-27T11:11:19.830Z,6.20
2017-11-27T11:13:47.474Z,5.67
2017-11-27T11:16:14.798Z,5.80
2017-11-27T11:18:42.492Z,6.07
2017-11-27T11:21:09.808Z,5.73
2017-11-27T11:23:37.334Z,5.80
2017-11-27T11:26:04.942Z,5.80
2017-11-27T11:28:32.622Z,6.10
2017-11-27T11:30:59.919Z,5.90
2017-11-27T11:33:27.220Z,5.50
2017-11-27T11:35:55.727Z,6.37
2017-11-27T11:38:23.353Z,6.00
2017-11-27T11:40:51.066Z,5.00
2017-11-27T11:43:18.365Z,5.53
2017-11-27T11:45:45.690Z,6.47
2017-11-27T11:48:12.990Z,6.43
2017-11-27T11:50:40.305Z,5.90
2017-11-27T11:53:08.054Z,6.10
2017-11-27T11:55:35.399Z,6.17
2017-11-27T11:58:03.030Z,6.37
2017-11-27T12:00:30.342Z,5.90
2017-11-27T12:02:57.648Z,5.60
2017-11-27T12:05:25.405Z,5.90
2017-11-27T12:07:53.436Z,5.87
2017-11-27T12:10:21.215Z,5.70
2017-11-27T12:12:48.529Z,5.73
2017-11-27T12:15:15.829Z,5.67
2017-11-27T12:17:43.687Z,5.30
2017-11-27T12:20:11.381Z,5.80
2017-11-27T12:22:39.193Z,5.55
2017-11-27T12:25:06.504Z,5.10
2017-11-27T12:27:34.205Z,4.13
2017-11-27T12:30:01.498Z,3.87
2017-11-27T12:32:28.821Z,4.40
2017-11-27T12:34:56.505Z,4.97
2017-11-27T12:37:24.313Z,5.20
2017-11-27T12:39:51.923Z,4.50
2017-11-27T12:42:19.640Z,4.13
2017-11-27T12:44:47.255Z,3.97
2017-11-27T12:47:15.044Z,4.63
2017-11-27T12:49:42.581Z,3.97
2017-11-27T12:52:09.891Z,3.97
2017-11-27T12:54:37.201Z,4.10
2017-11-27T12:57:04.493Z,3.45
2017-11-27T12:59:31.820Z,4.00
2017-11-27T13:01:59.263Z,4.10
2017-11-27T13:04:26.581Z,3.60
2017-11-27T13:06:54.999Z,3.20
2017-11-27T13:09:22.305Z,4.20
2017-11-27T13:11:49.986Z,3.77
2017-11-27T13:14:17.676Z,3.40
2017-11-27T13:16:44.974Z,4.40
2017-11-27T13:19:12.316Z,3.80
2017-11-27T13:21:40.080Z,4.10
2017-11-27T13:24:07.739Z,4.03
2017-11-27T13:26:35.041Z,3.90
2017-11-27T13:29:02.708Z,4.10
2017-11-27T13:31:30.103Z,4.13
2017-11-27T13:33:57.714Z,3.90
2017-11-27T13:36:25.395Z,4.20
2017-11-27T13:38:52.694Z,4.10
2017-11-27T13:41:20.004Z,3.63
2017-11-27T13:43:47.314Z,3.93
2017-11-27T13:46:14.643Z,3.97
2017-11-27T13:48:42.294Z,3.80
2017-11-27T13:51:09.925Z,3.80
2017-11-27T13:53:37.217Z,2.67
2017-11-27T13:56:04.854Z,4.10
2017-11-27T13:58:32.155Z,5.20
2017-11-27T14:00:59.450Z,6.17
2017-11-27T14:03:26.779Z,5.77
2017-11-27T14:05:54.157Z,4.80
2017-11-27T14:08:21.466Z,5.77
2017-11-27T14:10:48.783Z,3.80
2017-11-27T14:13:16.126Z,6.47
2017-11-27T14:15:43.459Z,4.87
2017-11-27T14:18:10.845Z,4.60
2017-11-27T14:20:38.486Z,5.10
2017-11-27T14:23:05.803Z,4.43
2017-11-27T14:25:33.119Z,5.70
2017-11-27T14:28:00.567Z,4.80
2017-11-27T14:30:27.856Z,4.53
2017-11-27T14:32:55.181Z,5.10
2017-11-27T14:35:22.805Z,4.30
2017-11-27T14:37:50.467Z,4.97
2017-11-27T14:40:17.842Z,4.30
2017-11-27T14:42:45.207Z,5.80
2017-11-27T14:45:12.856Z,4.63
2017-11-27T14:47:40.154Z,5.93
2017-11-27T14:50:07.499Z,5.30
2017-11-27T14:52:35.104Z,6.30
2017-11-27T14:55:02.423Z,4.60
2017-11-27T14:57:29.817Z,3.80
2017-11-27T14:59:57.213Z,5.13
2017-11-27T15:02:24.844Z,4.57
2017-11-27T15:04:52.511Z,4.37
2017-11-27T15:07:19.822Z,4.80
2017-11-27T15:09:47.154Z,7.47
2017-11-27T15:12:14.476Z,8.27
2017-11-27T15:14:42.118Z,6.97
2017-11-27T15:17:09.820Z,6.40
2017-11-27T15:19:37.470Z,5.97
2017-11-27T15:22:04.786Z,4.47
2017-11-27T15:24:32.455Z,5.80
2017-11-27T15:27:00.157Z,7.70
2017-11-27T15:29:27.582Z,5.90
2017-11-27T15:31:54.959Z,6.00
2017-11-27T15:34:22.591Z,7.10
2017-11-27T15:36:50.271Z,3.90
2017-11-27T15:39:17.585Z,4.40
2017-11-27T15:41:44.895Z,5.10
2017-11-27T15:44:12.514Z,5.40
2017-11-27T15:46:40.189Z,4.47
2017-11-27T15:49:07.844Z,5.33
2017-11-27T15:51:35.508Z,6.00
2017-11-27T15:54:03.185Z,5.70
2017-11-27T15:56:30.483Z,4.47
2017-11-27T15:58:57.801Z,4.97
2017-11-27T16:01:25.107Z,4.60
2017-11-27T16:03:52.454Z,5.20
2017-11-27T16:06:19.771Z,4.70
2017-11-27T16:08:47.414Z,5.23
2017-11-27T16:11:14.718Z,5.70
2017-11-27T16:13:42.045Z,5.70
2017-11-27T16:16:09.716Z,4.77
2017-11-27T16:18:37.334Z,5.30
2017-11-27T16:21:04.992Z,6.20
2017-11-27T16:23:32.683Z,6.20
2017-11-27T16:26:00.366Z,5.93
2017-11-27T16:28:28.002Z,5.80
2017-11-27T16:30:55.442Z,5.57
2017-11-27T16:33:22.761Z,5.10
2017-11-27T16:35:50.068Z,5.03
2017-11-27T16:38:17.402Z,5.13
2017-11-27T16:40:44.703Z,4.33
2017-11-27T16:43:12.033Z,4.17
2017-11-27T16:45:39.650Z,4.87
2017-11-27T16:48:07.314Z,4.53
2017-11-27T16:50:34.794Z,5.23
2017-11-27T16:53:02.101Z,4.77
2017-11-27T16:55:29.456Z,5.30
2017-11-27T16:57:56.768Z,5.80
2017-11-27T17:00:25.436Z,6.00
2017-11-27T17:02:52.809Z,6.03
2017-11-27T17:05:20.481Z,5.57
2017-11-27T17:07:48.099Z,4.40
2017-11-27T17:10:15.781Z,6.10
2017-11-27T17:12:43.098Z,5.80
2017-11-27T17:15:10.793Z,4.80
2017-11-27T17:17:38.108Z,4.80
2017-11-27T17:20:05.419Z,5.43
2017-11-27T17:22:33.050Z,5.77
2017-11-27T17:25:00.745Z,5.90
2017-11-27T17:27:28.362Z,5.60
2017-11-27T17:29:56.063Z,5.90
2017-11-27T17:32:23.718Z,5.73
2017-11-27T17:34:51.369Z,5.27
2017-11-27T17:37:19.042Z,5.27
2017-11-27T17:39:46.341Z,5.70
2017-11-27T17:42:13.650Z,5.30
2017-11-27T17:44:42.208Z,5.40
2017-11-27T17:47:09.907Z,5.40
2017-11-27T17:49:37.544Z,5.13
2017-11-27T17:52:04.853Z,6.43
2017-11-27T17:54:32.159Z,6.93
2017-11-27T17:56:59.475Z,7.60
2017-11-27T17:59:26.770Z,6.20
2017-11-27T18:01:54.446Z,7.53
2017-11-27T18:04:22.083Z,6.70
2017-11-27T18:06:49.387Z,6.07
2017-11-27T18:09:16.710Z,6.73
2017-11-27T18:11:44.346Z,6.87
2017-11-27T18:14:11.731Z,5.67
2017-11-27T18:16:39.349Z,6.60
2017-11-27T18:19:06.750Z,7.20
2017-11-27T18:21:34.368Z,7.50
2017-11-27T18:24:02.054Z,7.43
2017-11-27T18:26:29.739Z,8.30
2017-11-27T18:28:57.367Z,7.67
2017-11-27T18:31:24.684Z,7.80
2017-11-27T18:33:51.986Z,6.33
2017-11-27T18:36:19.629Z,7.10
2017-11-27T18:38:47.009Z,6.23
2017-11-27T18:41:14.630Z,6.23
2017-11-27T18:43:42.314Z,7.40
2017-11-27T18:46:09.673Z,6.40
2017-11-27T18:48:37.028Z,6.80
2017-11-27T18:51:04.338Z,9.30
2017-11-27T18:53:32.062Z,8.00
2017-11-27T18:55:59.704Z,7.90
2017-11-27T18:58:27.071Z,5.50
2017-11-27T19:00:54.727Z,5.97
2017-11-27T19:03:22.369Z,5.37
2017-11-27T19:05:49.690Z,5.77
2017-11-27T19:08:17.389Z,5.20
2017-11-27T19:10:44.694Z,5.57
2017-11-27T19:13:12.000Z,6.17
2017-11-27T19:15:39.313Z,5.60
2017-11-27T19:18:06.619Z,5.20
2017-11-27T19:20:35.297Z,5.80
2017-11-27T19:23:02.623Z,6.73
2017-11-27T19:25:30.311Z,4.60
2017-11-27T19:27:57.607Z,4.90
2017-11-27T19:30:24.949Z,6.00
2017-11-27T19:32:52.581Z,6.00
2017-11-27T19:35:19.887Z,4.80
2017-11-27T19:37:47.194Z,5.20
2017-11-27T19:40:14.829Z,5.40
2017-11-27T19:42:42.523Z,5.07
2017-11-27T19:45:10.162Z,5.57
2017-11-27T19:47:37.494Z,6.90
2017-11-27T19:50:04.991Z,5.90
2017-11-27T19:52:32.318Z,6.37
2017-11-27T19:54:59.653Z,5.13
2017-11-27T19:57:27.370Z,5.50
2017-11-27T19:59:55.003Z,5.45
2017-11-27T20:02:22.671Z,5.40
2017-11-27T20:04:49.961Z,4.53
2017-11-27T20:07:17.610Z,5.20
2017-11-27T20:09:45.234Z,6.23
2017-11-27T20:12:12.534Z,6.10
2017-11-27T20:14:39.913Z,6.40
2017-11-27T20:17:07.232Z,5.50
2017-11-27T20:19:34.994Z,6.17
2017-11-27T20:22:02.724Z,7.07
2017-11-27T20:24:30.401Z,5.60
2017-11-27T20:26:57.740Z,6.90
2017-11-27T20:29:25.409Z,6.33
2017-11-27T20:31:52.718Z,5.90
2017-11-27T20:34:20.046Z,6.37
2017-11-27T20:36:47.683Z,6.30
2017-11-27T20:39:14.994Z,5.30
2017-11-27T20:41:42.295Z,5.80
2017-11-27T20:44:09.612Z,5.27
2017-11-27T20:46:37.296Z,5.03
2017-11-27T20:49:04.970Z,6.00
2017-11-27T20:51:32.266Z,6.80
2017-11-27T20:53:59.570Z,6.50
2017-11-27T20:56:26.885Z,4.43
2017-11-27T20:58:54.219Z,5.50
2017-11-27T21:01:21.938Z,5.50
2017-11-27T21:03:49.240Z,4.80
2017-11-27T21:06:16.868Z,4.97
2017-11-27T21:08:44.210Z,5.00
2017-11-27T21:11:11.873Z,5.60
2017-11-27T21:13:39.190Z,4.00
2017-11-27T21:16:06.590Z,5.10
2017-11-27T21:18:33.894Z,5.77
2017-11-27T21:21:01.292Z,4.60
2017-11-27T21:23:28.939Z,4.60
2017-11-27T21:25:56.602Z,3.90
2017-11-27T21:28:24.374Z,3.40
2017-11-27T21:30:51.682Z,3.30
2017-11-27T21:33:19.304Z,3.50
2017-11-27T21:35:46.663Z,3.10
2017-11-27T21:38:14.317Z,4.27
2017-11-27T21:40:41.613Z,3.50
2017-11-27T21:43:08.919Z,4.03
2017-11-27T21:45:36.209Z,3.50
2017-11-27T21:48:03.525Z,3.50
2017-11-27T21:50:30.830Z,2.87
2017-11-27T21:52:58.181Z,3.27
2017-11-27T21:55:25.774Z,3.03
2017-11-27T21:57:53.441Z,3.10
2017-11-27T22:00:21.096Z,3.20
2017-11-27T22:02:48.445Z,3.00
2017-11-27T22:05:16.135Z,3.50
2017-11-27T22:07:43.434Z,2.80
2017-11-27T22:10:10.746Z,3.57
2017-11-27T22:12:38.041Z,2.60
2017-11-27T22:15:05.585Z,3.00
2017-11-27T22:17:32.952Z,2.83
2017-11-27T22:20:00.258Z,2.80
2017-11-27T22:22:27.625Z,2.47
2017-11-27T22:24:55.275Z,2.70
2017-11-27T22:27:22.569Z,2.37
2017-11-27T22:29:49.893Z,2.30
2017-11-27T22:32:17.221Z,2.33
2017-11-27T22:34:44.914Z,2.60
2017-11-27T22:37:12.545Z,2.10
2017-11-27T22:39:40.383Z,2.40
2017-11-27T22:42:07.673Z,2.27
2017-11-27T22:44:34.971Z,2.60
2017-11-27T22:47:02.586Z,2.50
2017-11-27T22:49:29.914Z,2.80
2017-11-27T22:51:57.611Z,2.73
2017-11-27T22:54:24.921Z,2.70
2017-11-27T22:56:52.229Z,2.73
2017-11-27T22:59:19.746Z,2.70
2017-11-27T23:01:47.479Z,2.80
2017-11-27T23:04:15.103Z,3.07
2017-11-27T23:06:42.758Z,2.93
2017-11-27T23:09:10.053Z,3.00
2017-11-27T23:11:37.396Z,2.90
2017-11-27T23:14:05.014Z,2.93
2017-11-27T23:16:32.359Z,3.40
2017-11-27T23:19:00.043Z,3.37
2017-11-27T23:21:27.697Z,3.40
2017-11-27T23:23:55.397Z,3.10
2017-11-27T23:26:23.120Z,3.27
2017-11-27T23:28:50.507Z,3.20
2017-11-27T23:31:18.047Z,3.30
2017-11-27T23:33:45.361Z,3.50
2017-11-27T23:36:12.846Z,2.83
2017-11-27T23:38:40.404Z,2.80
2017-11-27T23:41:07.696Z,2.50
2017-11-27T23:43:35.322Z,2.73
2017-11-27T23:46:02.644Z,2.50
2017-11-27T23:48:29.961Z,2.10
2017-11-27T23:50:57.597Z,2.53
2017-11-27T23:53:24.948Z,2.73
2017-11-27T23:55:52.637Z,2.50
2017-11-27T23:58:20.255Z,2.60
